KBTV Airport (Burlington Intl) Information

FAA: BTV - ICAO: KBTV

KBTV Airport Location

State Vermont
County Chittenden
City Burlington
KBTV Airport is 3 miles east of Burlington, VT.
Latitude 44-28-19.0380N
Longitude 073-09-11.7940W
Elevation 334ft

KBTV Airport METARs

METAR KBTV 200154Z 09003KT 10SM SCT080 08/06 A2980 RMK AO2 SLP093 T00830056
Altimeter 29.80"
Temperature 8.3°C (46.9°F)
Wind 90° at 3KT
Clouds scattered at 8,000ft
Visibility 10.0mi
Time observed: 2021-10-20T01:54:00Z

KBTV Airport Details

Status Operational
Activation September 1937
Ownership Public
Usage Public
Chart MONTREAL
ATC on-site Yes
Beacon schedule sunset-sunrise
Beacon color clear green

KBTV Airport Contacts

Owner CITY OF BURLINGTON
Owner address CITY HALL, BURLINGTON, VT 05401
Owner phone 802-865-7272
Manager STEVE GILBERT
Manager address P O BOX 665, CEDAR CITY, UT 84720
Manager phone 435-586-5138

KBTV Airport (Burlington Intl) Radio Frequencies

KBTV (Airport) Radio Frequencies

UNICOM 122.95
Common traffic advisory frequency (CTAF) 118.3